East Harling, United Kingdom
Current Conditions -  °F | °C
As of 11:24 PM on Thursday 27 Nov 2014 (Local Time) from EGUL Reporting Station
Broken Clouds Broken Clouds  
Wind Chill: 50°   Ceiling: 1600
Heat Index: 50°   Visibility: 6mi
Dew Point: 50°   Wind: 5mph
Humidity: 100%   Direction: 100°E
Pressure: 29.62"   Gusts: NA
Location:  52.44°N, 0.93°E
Report Text: EGUL 272324Z AUTO 10004KT 9999 BKN016 10/10 A2962 RMK AO2
Loading
Personal Weather Stations






























Interactive Weather Map New forecast layout! Learn more

10-Day Weather Forecast

Advertisements
Track Severe Weather on mobile